Aviation Digital Data Service (ADDS)

Output produced by METARs form (1311 UTC 28 August 2014)
found at http://www.aviationweather.gov/adds/metars/
 
KSPI 281126Z 2812/2912 08007KT P6SM VCSH SCT020 OVC050 
     FM281800 11008KT P6SM VCTS SCT030CB BKN150 
     FM290100 12005KT P6SM VCSH SCT040 BKN150